sensor_id;sensor_type;location;lat;lon;timestamp;temperature;humidity
3921;DHT22;1975;49.356;6.816;2022-08-23T00:01:50;24.30;76.00
3921;DHT22;1975;49.356;6.816;2022-08-23T00:04:24;24.30;76.00
3921;DHT22;1975;49.356;6.816;2022-08-23T00:06:50;24.30;76.10
3921;DHT22;1975;49.356;6.816;2022-08-23T00:09:17;24.20;76.10
3921;DHT22;1975;49.356;6.816;2022-08-23T00:11:44;24.20;76.20
3921;DHT22;1975;49.356;6.816;2022-08-23T00:14:11;24.20;76.20
3921;DHT22;1975;49.356;6.816;2022-08-23T00:16:36;24.20;76.00
3921;DHT22;1975;49.356;6.816;2022-08-23T00:19:03;24.20;76.20
3921;DHT22;1975;49.356;6.816;2022-08-23T00:21:29;24.20;76.20
3921;DHT22;1975;49.356;6.816;2022-08-23T00:23:54;24.10;76.20
3921;DHT22;1975;49.356;6.816;2022-08-23T00:26:20;24.20;76.20
3921;DHT22;1975;49.356;6.816;2022-08-23T00:28:46;24.10;76.30
3921;DHT22;1975;49.356;6.816;2022-08-23T00:31:11;24.10;76.20
3921;DHT22;1975;49.356;6.816;2022-08-23T00:33:37;24.10;76.30
3921;DHT22;1975;49.356;6.816;2022-08-23T00:36:02;24.10;76.30
3921;DHT22;1975;49.356;6.816;2022-08-23T00:38:28;24.00;76.30
3921;DHT22;1975;49.356;6.816;2022-08-23T00:40:53;24.00;76.30
3921;DHT22;1975;49.356;6.816;2022-08-23T00:43:22;24.00;76.30
3921;DHT22;1975;49.356;6.816;2022-08-23T00:46:09;24.00;76.30
3921;DHT22;1975;49.356;6.816;2022-08-23T00:48:55;24.00;76.40
3921;DHT22;1975;49.356;6.816;2022-08-23T00:51:22;24.00;76.40
3921;DHT22;1975;49.356;6.816;2022-08-23T00:53:52;24.00;76.40
3921;DHT22;1975;49.356;6.816;2022-08-23T00:56:20;24.00;76.50
3921;DHT22;1975;49.356;6.816;2022-08-23T00:58:46;23.90;76.50
3921;DHT22;1975;49.356;6.816;2022-08-23T01:01:13;23.90;76.60
3921;DHT22;1975;49.356;6.816;2022-08-23T01:03:40;23.90;76.60
3921;DHT22;1975;49.356;6.816;2022-08-23T01:06:09;23.90;76.60
3921;DHT22;1975;49.356;6.816;2022-08-23T01:08:35;23.80;76.60
3921;DHT22;1975;49.356;6.816;2022-08-23T01:11:06;23.80;76.60
3921;DHT22;1975;49.356;6.816;2022-08-23T01:13:34;23.80;76.70
3921;DHT22;1975;49.356;6.816;2022-08-23T01:16:08;23.80;76.60
3921;DHT22;1975;49.356;6.816;2022-08-23T01:18:35;23.80;76.70
3921;DHT22;1975;49.356;6.816;2022-08-23T01:21:08;23.80;76.70
3921;DHT22;1975;49.356;6.816;2022-08-23T01:23:36;23.70;76.70
3921;DHT22;1975;49.356;6.816;2022-08-23T01:26:04;23.70;76.80
3921;DHT22;1975;49.356;6.816;2022-08-23T01:28:30;23.70;76.80
3921;DHT22;1975;49.356;6.816;2022-08-23T01:30:56;23.70;76.80
3921;DHT22;1975;49.356;6.816;2022-08-23T01:33:21;23.70;76.90
3921;DHT22;1975;49.356;6.816;2022-08-23T01:35:48;23.70;77.00
3921;DHT22;1975;49.356;6.816;2022-08-23T01:38:15;23.70;77.10
3921;DHT22;1975;49.356;6.816;2022-08-23T01:40:41;23.70;77.10
3921;DHT22;1975;49.356;6.816;2022-08-23T01:43:06;23.60;77.00
3921;DHT22;1975;49.356;6.816;2022-08-23T01:45:32;23.60;77.10
3921;DHT22;1975;49.356;6.816;2022-08-23T01:47:58;23.60;77.10
3921;DHT22;1975;49.356;6.816;2022-08-23T01:50:24;23.60;77.10
3921;DHT22;1975;49.356;6.816;2022-08-23T01:52:49;23.60;77.10
3921;DHT22;1975;49.356;6.816;2022-08-23T01:55:15;23.50;77.10
3921;DHT22;1975;49.356;6.816;2022-08-23T01:57:41;23.60;77.20
3921;DHT22;1975;49.356;6.816;2022-08-23T02:00:07;23.50;77.30
3921;DHT22;1975;49.356;6.816;2022-08-23T02:02:33;23.50;77.30
3921;DHT22;1975;49.356;6.816;2022-08-23T02:04:59;23.50;77.30
3921;DHT22;1975;49.356;6.816;2022-08-23T02:07:25;23.50;77.40
3921;DHT22;1975;49.356;6.816;2022-08-23T02:09:51;23.50;77.30
3921;DHT22;1975;49.356;6.816;2022-08-23T02:12:16;23.50;77.30
3921;DHT22;1975;49.356;6.816;2022-08-23T02:14:42;23.40;77.30
3921;DHT22;1975;49.356;6.816;2022-08-23T02:17:07;23.40;77.30
3921;DHT22;1975;49.356;6.816;2022-08-23T02:19:33;23.40;77.20
3921;DHT22;1975;49.356;6.816;2022-08-23T02:21:59;23.40;77.30
3921;DHT22;1975;49.356;6.816;2022-08-23T02:24:25;23.40;77.30
3921;DHT22;1975;49.356;6.816;2022-08-23T02:26:52;23.40;77.40
3921;DHT22;1975;49.356;6.816;2022-08-23T02:29:19;23.30;77.40
3921;DHT22;1975;49.356;6.816;2022-08-23T02:31:45;23.30;77.40
3921;DHT22;1975;49.356;6.816;2022-08-23T02:34:11;23.30;77.30
3921;DHT22;1975;49.356;6.816;2022-08-23T02:36:37;23.30;77.40
3921;DHT22;1975;49.356;6.816;2022-08-23T02:39:03;23.20;77.40
3921;DHT22;1975;49.356;6.816;2022-08-23T02:41:29;23.20;77.40
3921;DHT22;1975;49.356;6.816;2022-08-23T02:43:55;23.20;77.40
3921;DHT22;1975;49.356;6.816;2022-08-23T02:46:21;23.20;77.40
3921;DHT22;1975;49.356;6.816;2022-08-23T02:48:47;23.20;77.40
3921;DHT22;1975;49.356;6.816;2022-08-23T02:51:13;23.20;77.50
3921;DHT22;1975;49.356;6.816;2022-08-23T02:53:39;23.20;77.60
3921;DHT22;1975;49.356;6.816;2022-08-23T02:56:04;23.10;77.60
3921;DHT22;1975;49.356;6.816;2022-08-23T02:58:30;23.10;77.50
3921;DHT22;1975;49.356;6.816;2022-08-23T03:00:56;23.10;77.50
3921;DHT22;1975;49.356;6.816;2022-08-23T03:03:22;23.10;78.40
3921;DHT22;1975;49.356;6.816;2022-08-23T03:05:48;23.10;77.80
3921;DHT22;1975;49.356;6.816;2022-08-23T03:08:13;23.10;77.80
3921;DHT22;1975;49.356;6.816;2022-08-23T03:10:44;23.10;77.90
3921;DHT22;1975;49.356;6.816;2022-08-23T03:13:10;23.00;77.80
3921;DHT22;1975;49.356;6.816;2022-08-23T03:15:36;23.00;78.00
3921;DHT22;1975;49.356;6.816;2022-08-23T03:18:02;23.00;78.00
3921;DHT22;1975;49.356;6.816;2022-08-23T03:20:27;23.00;78.00
3921;DHT22;1975;49.356;6.816;2022-08-23T03:22:53;23.00;78.10
3921;DHT22;1975;49.356;6.816;2022-08-23T03:25:18;23.00;78.10
3921;DHT22;1975;49.356;6.816;2022-08-23T03:27:43;22.90;78.00
3921;DHT22;1975;49.356;6.816;2022-08-23T03:30:09;22.90;78.10
3921;DHT22;1975;49.356;6.816;2022-08-23T03:32:35;22.90;78.10
3921;DHT22;1975;49.356;6.816;2022-08-23T03:35:00;22.90;78.10
3921;DHT22;1975;49.356;6.816;2022-08-23T03:37:26;22.90;78.20
3921;DHT22;1975;49.356;6.816;2022-08-23T03:39:51;22.90;78.20
3921;DHT22;1975;49.356;6.816;2022-08-23T03:42:17;22.80;78.20
3921;DHT22;1975;49.356;6.816;2022-08-23T03:44:43;22.90;78.20
3921;DHT22;1975;49.356;6.816;2022-08-23T03:47:09;22.80;78.20
3921;DHT22;1975;49.356;6.816;2022-08-23T03:49:34;22.80;78.20
3921;DHT22;1975;49.356;6.816;2022-08-23T03:52:00;22.80;78.30
3921;DHT22;1975;49.356;6.816;2022-08-23T03:54:26;22.80;78.30
3921;DHT22;1975;49.356;6.816;2022-08-23T03:56:53;22.80;78.30
3921;DHT22;1975;49.356;6.816;2022-08-23T03:59:19;22.70;78.20
3921;DHT22;1975;49.356;6.816;2022-08-23T04:01:44;22.70;78.30
3921;DHT22;1975;49.356;6.816;2022-08-23T04:04:10;22.70;78.40
3921;DHT22;1975;49.356;6.816;2022-08-23T04:06:35;22.70;78.30
3921;DHT22;1975;49.356;6.816;2022-08-23T04:09:01;22.70;78.40
3921;DHT22;1975;49.356;6.816;2022-08-23T04:11:27;22.70;78.50
3921;DHT22;1975;49.356;6.816;2022-08-23T04:13:53;22.70;78.50
3921;DHT22;1975;49.356;6.816;2022-08-23T04:16:18;22.60;78.50
3921;DHT22;1975;49.356;6.816;2022-08-23T04:18:44;22.60;78.50
3921;DHT22;1975;49.356;6.816;2022-08-23T04:21:11;22.60;78.50
3921;DHT22;1975;49.356;6.816;2022-08-23T04:23:38;22.60;78.50
3921;DHT22;1975;49.356;6.816;2022-08-23T04:26:04;22.60;78.60
3921;DHT22;1975;49.356;6.816;2022-08-23T04:28:31;22.60;78.50
3921;DHT22;1975;49.356;6.816;2022-08-23T04:30:56;22.60;78.60
3921;DHT22;1975;49.356;6.816;2022-08-23T04:33:24;22.50;78.60
3921;DHT22;1975;49.356;6.816;2022-08-23T04:35:50;22.50;78.60
3921;DHT22;1975;49.356;6.816;2022-08-23T04:38:15;22.50;78.60
3921;DHT22;1975;49.356;6.816;2022-08-23T04:40:41;22.40;78.60
3921;DHT22;1975;49.356;6.816;2022-08-23T04:43:25;22.50;78.70
3921;DHT22;1975;49.356;6.816;2022-08-23T04:45:51;22.50;78.60
3921;DHT22;1975;49.356;6.816;2022-08-23T04:48:17;22.50;78.80
3921;DHT22;1975;49.356;6.816;2022-08-23T04:50:42;22.40;78.80
3921;DHT22;1975;49.356;6.816;2022-08-23T04:53:08;22.40;78.80
3921;DHT22;1975;49.356;6.816;2022-08-23T04:55:33;22.40;78.80
3921;DHT22;1975;49.356;6.816;2022-08-23T04:57:58;22.40;78.90
3921;DHT22;1975;49.356;6.816;2022-08-23T05:00:24;22.40;78.90
3921;DHT22;1975;49.356;6.816;2022-08-23T05:02:49;22.40;79.60
3921;DHT22;1975;49.356;6.816;2022-08-23T05:05:15;22.40;79.00
3921;DHT22;1975;49.356;6.816;2022-08-23T05:07:41;22.40;79.00
3921;DHT22;1975;49.356;6.816;2022-08-23T05:10:07;22.40;79.00
3921;DHT22;1975;49.356;6.816;2022-08-23T05:12:33;22.40;79.10
3921;DHT22;1975;49.356;6.816;2022-08-23T05:14:59;22.40;79.10
3921;DHT22;1975;49.356;6.816;2022-08-23T05:17:24;22.40;79.10
3921;DHT22;1975;49.356;6.816;2022-08-23T05:19:50;22.40;79.20
3921;DHT22;1975;49.356;6.816;2022-08-23T05:22:16;22.40;79.30
3921;DHT22;1975;49.356;6.816;2022-08-23T05:24:41;22.40;79.20
3921;DHT22;1975;49.356;6.816;2022-08-23T05:27:06;22.40;79.30
3921;DHT22;1975;49.356;6.816;2022-08-23T05:29:32;22.40;79.30
3921;DHT22;1975;49.356;6.816;2022-08-23T05:31:57;22.40;79.30
3921;DHT22;1975;49.356;6.816;2022-08-23T05:34:23;22.50;79.30
3921;DHT22;1975;49.356;6.816;2022-08-23T05:36:49;22.50;79.30
3921;DHT22;1975;49.356;6.816;2022-08-23T05:39:15;22.50;79.30
3921;DHT22;1975;49.356;6.816;2022-08-23T05:41:41;22.50;79.20
3921;DHT22;1975;49.356;6.816;2022-08-23T05:44:07;22.50;79.20
3921;DHT22;1975;49.356;6.816;2022-08-23T05:46:32;22.50;79.10
3921;DHT22;1975;49.356;6.816;2022-08-23T05:48:58;22.50;79.10
3921;DHT22;1975;49.356;6.816;2022-08-23T05:51:25;22.50;79.10
3921;DHT22;1975;49.356;6.816;2022-08-23T05:53:51;22.60;79.20
3921;DHT22;1975;49.356;6.816;2022-08-23T05:56:23;22.60;79.30
3921;DHT22;1975;49.356;6.816;2022-08-23T05:58:50;22.50;79.30
3921;DHT22;1975;49.356;6.816;2022-08-23T06:01:16;22.50;79.40
3921;DHT22;1975;49.356;6.816;2022-08-23T06:03:42;22.50;79.50
3921;DHT22;1975;49.356;6.816;2022-08-23T06:06:07;22.40;79.50
3921;DHT22;1975;49.356;6.816;2022-08-23T06:08:33;22.40;79.50
3921;DHT22;1975;49.356;6.816;2022-08-23T06:11:00;22.40;79.60
3921;DHT22;1975;49.356;6.816;2022-08-23T06:13:25;22.40;79.70
3921;DHT22;1975;49.356;6.816;2022-08-23T06:15:51;22.40;79.80
3921;DHT22;1975;49.356;6.816;2022-08-23T06:18:16;22.40;79.90
3921;DHT22;1975;49.356;6.816;2022-08-23T06:20:42;22.40;79.90
3921;DHT22;1975;49.356;6.816;2022-08-23T06:23:07;22.40;80.10
3921;DHT22;1975;49.356;6.816;2022-08-23T06:25:36;22.40;80.30
3921;DHT22;1975;49.356;6.816;2022-08-23T06:28:02;22.40;80.30
3921;DHT22;1975;49.356;6.816;2022-08-23T06:30:28;22.40;80.30
3921;DHT22;1975;49.356;6.816;2022-08-23T06:32:53;22.40;80.40
3921;DHT22;1975;49.356;6.816;2022-08-23T06:35:19;22.40;80.40
3921;DHT22;1975;49.356;6.816;2022-08-23T06:37:44;22.40;80.40
3921;DHT22;1975;49.356;6.816;2022-08-23T06:40:10;22.40;80.40
3921;DHT22;1975;49.356;6.816;2022-08-23T06:42:35;22.40;83.80
3921;DHT22;1975;49.356;6.816;2022-08-23T06:45:01;22.40;82.70
3921;DHT22;1975;49.356;6.816;2022-08-23T06:47:27;22.40;82.40
3921;DHT22;1975;49.356;6.816;2022-08-23T06:49:52;22.30;82.40
3921;DHT22;1975;49.356;6.816;2022-08-23T06:52:18;22.30;82.50
3921;DHT22;1975;49.356;6.816;2022-08-23T06:54:44;22.30;82.60
3921;DHT22;1975;49.356;6.816;2022-08-23T06:57:11;22.40;82.90
3921;DHT22;1975;49.356;6.816;2022-08-23T06:59:38;22.40;82.70
3921;DHT22;1975;49.356;6.816;2022-08-23T07:02:05;22.40;83.00
3921;DHT22;1975;49.356;6.816;2022-08-23T07:04:33;22.40;82.90
3921;DHT22;1975;49.356;6.816;2022-08-23T07:06:58;22.40;83.10
3921;DHT22;1975;49.356;6.816;2022-08-23T07:09:25;22.40;83.20
3921;DHT22;1975;49.356;6.816;2022-08-23T07:11:51;22.40;83.20
3921;DHT22;1975;49.356;6.816;2022-08-23T07:14:18;22.50;83.40
3921;DHT22;1975;49.356;6.816;2022-08-23T07:16:49;22.50;83.50
3921;DHT22;1975;49.356;6.816;2022-08-23T07:19:15;22.50;83.50
3921;DHT22;1975;49.356;6.816;2022-08-23T07:21:41;22.50;83.60
3921;DHT22;1975;49.356;6.816;2022-08-23T07:24:07;22.50;83.50
3921;DHT22;1975;49.356;6.816;2022-08-23T07:26:33;22.50;83.60
3921;DHT22;1975;49.356;6.816;2022-08-23T07:28:58;22.50;83.50
3921;DHT22;1975;49.356;6.816;2022-08-23T07:31:31;22.50;83.40
3921;DHT22;1975;49.356;6.816;2022-08-23T07:33:57;22.50;83.40
3921;DHT22;1975;49.356;6.816;2022-08-23T07:36:24;22.60;83.40
3921;DHT22;1975;49.356;6.816;2022-08-23T07:38:50;22.50;83.40
3921;DHT22;1975;49.356;6.816;2022-08-23T07:41:16;22.60;83.50
3921;DHT22;1975;49.356;6.816;2022-08-23T07:43:42;22.60;83.70
3921;DHT22;1975;49.356;6.816;2022-08-23T07:46:08;22.60;83.90
3921;DHT22;1975;49.356;6.816;2022-08-23T07:48:33;22.60;84.80
3921;DHT22;1975;49.356;6.816;2022-08-23T07:51:00;22.60;86.20
3921;DHT22;1975;49.356;6.816;2022-08-23T07:53:26;22.60;86.10
3921;DHT22;1975;49.356;6.816;2022-08-23T07:55:52;22.60;87.00
3921;DHT22;1975;49.356;6.816;2022-08-23T07:58:18;22.60;87.90
3921;DHT22;1975;49.356;6.816;2022-08-23T08:00:43;22.60;87.70
3921;DHT22;1975;49.356;6.816;2022-08-23T08:03:10;22.50;87.30
3921;DHT22;1975;49.356;6.816;2022-08-23T08:05:36;22.50;88.10
3921;DHT22;1975;49.356;6.816;2022-08-23T08:08:02;22.50;88.00
3921;DHT22;1975;49.356;6.816;2022-08-23T08:10:28;22.40;88.20
3921;DHT22;1975;49.356;6.816;2022-08-23T08:12:54;22.50;89.50
3921;DHT22;1975;49.356;6.816;2022-08-23T08:15:20;22.40;89.20
3921;DHT22;1975;49.356;6.816;2022-08-23T08:17:46;22.40;88.80
3921;DHT22;1975;49.356;6.816;2022-08-23T08:20:12;22.40;89.20
3921;DHT22;1975;49.356;6.816;2022-08-23T08:22:37;22.50;89.20
3921;DHT22;1975;49.356;6.816;2022-08-23T08:25:03;22.40;89.60
3921;DHT22;1975;49.356;6.816;2022-08-23T08:27:28;22.50;90.20
3921;DHT22;1975;49.356;6.816;2022-08-23T08:29:54;22.50;90.00
3921;DHT22;1975;49.356;6.816;2022-08-23T08:32:19;22.50;89.80
3921;DHT22;1975;49.356;6.816;2022-08-23T08:34:45;22.50;90.40
3921;DHT22;1975;49.356;6.816;2022-08-23T08:37:10;22.50;90.40
3921;DHT22;1975;49.356;6.816;2022-08-23T08:39:36;22.50;90.30
3921;DHT22;1975;49.356;6.816;2022-08-23T08:44:57;22.60;90.30
3921;DHT22;1975;49.356;6.816;2022-08-23T08:49:57;22.70;90.20
3921;DHT22;1975;49.356;6.816;2022-08-23T08:54:52;22.70;90.10
3921;DHT22;1975;49.356;6.816;2022-08-23T08:57:19;22.80;90.50
3921;DHT22;1975;49.356;6.816;2022-08-23T08:59:51;22.80;90.40
3921;DHT22;1975;49.356;6.816;2022-08-23T09:02:19;22.80;90.20
3921;DHT22;1975;49.356;6.816;2022-08-23T09:04:45;22.90;90.50
3921;DHT22;1975;49.356;6.816;2022-08-23T09:07:13;22.90;90.50
3921;DHT22;1975;49.356;6.816;2022-08-23T09:17:39;23.00;90.80
3921;DHT22;1975;49.356;6.816;2022-08-23T09:20:08;23.10;90.70
3921;DHT22;1975;49.356;6.816;2022-08-23T09:22:44;23.10;90.50
3921;DHT22;1975;49.356;6.816;2022-08-23T09:25:11;23.20;90.50
3921;DHT22;1975;49.356;6.816;2022-08-23T09:27:38;23.20;90.50
3921;DHT22;1975;49.356;6.816;2022-08-23T09:30:05;23.20;90.30
3921;DHT22;1975;49.356;6.816;2022-08-23T09:32:35;23.20;90.40
3921;DHT22;1975;49.356;6.816;2022-08-23T09:40:33;23.40;90.50
3921;DHT22;1975;49.356;6.816;2022-08-23T09:43:31;23.40;90.30
3921;DHT22;1975;49.356;6.816;2022-08-23T09:48:36;23.50;90.10
3921;DHT22;1975;49.356;6.816;2022-08-23T09:51:04;23.50;90.00
3921;DHT22;1975;49.356;6.816;2022-08-23T09:53:31;23.50;90.00
3921;DHT22;1975;49.356;6.816;2022-08-23T09:55:57;23.60;89.70
3921;DHT22;1975;49.356;6.816;2022-08-23T09:58:37;23.70;89.50
3921;DHT22;1975;49.356;6.816;2022-08-23T10:01:13;23.70;89.40
3921;DHT22;1975;49.356;6.816;2022-08-23T10:03:42;23.70;89.50
3921;DHT22;1975;49.356;6.816;2022-08-23T10:06:09;23.80;89.10
3921;DHT22;1975;49.356;6.816;2022-08-23T10:08:38;23.80;89.30
3921;DHT22;1975;49.356;6.816;2022-08-23T10:11:21;23.90;89.30
3921;DHT22;1975;49.356;6.816;2022-08-23T10:13:48;23.90;88.60
3921;DHT22;1975;49.356;6.816;2022-08-23T10:23:45;24.00;87.10
3921;DHT22;1975;49.356;6.816;2022-08-23T10:26:24;24.10;86.30
3921;DHT22;1975;49.356;6.816;2022-08-23T10:28:54;24.10;87.50
3921;DHT22;1975;49.356;6.816;2022-08-23T10:39:29;24.40;87.20
3921;DHT22;1975;49.356;6.816;2022-08-23T10:44:24;24.50;86.20
3921;DHT22;1975;49.356;6.816;2022-08-23T10:49:22;24.50;86.20
3921;DHT22;1975;49.356;6.816;2022-08-23T10:51:49;24.50;86.30
3921;DHT22;1975;49.356;6.816;2022-08-23T10:54:17;24.50;86.50
3921;DHT22;1975;49.356;6.816;2022-08-23T10:56:49;24.50;86.20
3921;DHT22;1975;49.356;6.816;2022-08-23T10:59:16;24.50;86.80
3921;DHT22;1975;49.356;6.816;2022-08-23T11:01:59;24.50;87.30
3921;DHT22;1975;49.356;6.816;2022-08-23T11:07:19;24.60;86.40
3921;DHT22;1975;49.356;6.816;2022-08-23T11:09:49;24.70;85.90
3921;DHT22;1975;49.356;6.816;2022-08-23T11:12:20;24.80;85.80
3921;DHT22;1975;49.356;6.816;2022-08-23T11:20:09;25.10;82.90
3921;DHT22;1975;49.356;6.816;2022-08-23T11:27:44;25.10;83.20
3921;DHT22;1975;49.356;6.816;2022-08-23T11:32:54;25.20;83.00
3921;DHT22;1975;49.356;6.816;2022-08-23T11:35:36;25.40;81.30
3921;DHT22;1975;49.356;6.816;2022-08-23T11:38:03;25.30;81.20
3921;DHT22;1975;49.356;6.816;2022-08-23T11:41:02;25.20;82.60
3921;DHT22;1975;49.356;6.816;2022-08-23T11:43:26;25.20;83.20
3921;DHT22;1975;49.356;6.816;2022-08-23T11:45:51;25.20;83.00
3921;DHT22;1975;49.356;6.816;2022-08-23T11:48:52;25.20;82.20
3921;DHT22;1975;49.356;6.816;2022-08-23T11:56:25;25.40;81.30
3921;DHT22;1975;49.356;6.816;2022-08-23T11:58:56;25.50;81.30
3921;DHT22;1975;49.356;6.816;2022-08-23T12:01:29;25.60;80.80
3921;DHT22;1975;49.356;6.816;2022-08-23T12:03:57;25.60;80.30
3921;DHT22;1975;49.356;6.816;2022-08-23T12:06:40;25.60;80.10
3921;DHT22;1975;49.356;6.816;2022-08-23T12:16:57;25.80;79.80
3921;DHT22;1975;49.356;6.816;2022-08-23T12:19:39;25.90;79.60
3921;DHT22;1975;49.356;6.816;2022-08-23T12:22:13;25.90;79.20
3921;DHT22;1975;49.356;6.816;2022-08-23T12:24:40;25.90;79.50
3921;DHT22;1975;49.356;6.816;2022-08-23T12:27:22;26.00;78.00
3921;DHT22;1975;49.356;6.816;2022-08-23T12:29:52;26.10;79.30
3921;DHT22;1975;49.356;6.816;2022-08-23T12:32:26;26.00;79.20
3921;DHT22;1975;49.356;6.816;2022-08-23T12:37:21;26.10;80.60
3921;DHT22;1975;49.356;6.816;2022-08-23T12:39:51;26.10;79.60
3921;DHT22;1975;49.356;6.816;2022-08-23T12:42:19;26.10;79.90
3921;DHT22;1975;49.356;6.816;2022-08-23T12:44:57;26.10;80.60
3921;DHT22;1975;49.356;6.816;2022-08-23T12:47:23;26.10;81.00
3921;DHT22;1975;49.356;6.816;2022-08-23T12:50:14;26.10;80.30
3921;DHT22;1975;49.356;6.816;2022-08-23T12:52:38;26.10;79.90
3921;DHT22;1975;49.356;6.816;2022-08-23T12:55:13;26.00;79.80
3921;DHT22;1975;49.356;6.816;2022-08-23T12:57:39;26.00;80.40
3921;DHT22;1975;49.356;6.816;2022-08-23T13:00:20;26.00;80.20
3921;DHT22;1975;49.356;6.816;2022-08-23T13:02:48;26.00;79.10
3921;DHT22;1975;49.356;6.816;2022-08-23T13:05:18;25.90;79.30
3921;DHT22;1975;49.356;6.816;2022-08-23T13:07:46;25.90;80.50
3921;DHT22;1975;49.356;6.816;2022-08-23T13:10:12;25.90;80.70
3921;DHT22;1975;49.356;6.816;2022-08-23T13:12:38;25.90;79.60
3921;DHT22;1975;49.356;6.816;2022-08-23T13:15:04;26.00;79.80
3921;DHT22;1975;49.356;6.816;2022-08-23T13:17:31;26.00;79.30
3921;DHT22;1975;49.356;6.816;2022-08-23T13:22:26;26.10;79.40
3921;DHT22;1975;49.356;6.816;2022-08-23T13:25:10;26.30;79.30
3921;DHT22;1975;49.356;6.816;2022-08-23T13:32:39;26.30;78.50
3921;DHT22;1975;49.356;6.816;2022-08-23T13:37:51;26.40;77.20
3921;DHT22;1975;49.356;6.816;2022-08-23T13:40:19;26.30;77.80
3921;DHT22;1975;49.356;6.816;2022-08-23T13:42:47;26.30;78.10
3921;DHT22;1975;49.356;6.816;2022-08-23T13:45:22;26.30;78.80
3921;DHT22;1975;49.356;6.816;2022-08-23T13:47:57;26.20;78.80
3921;DHT22;1975;49.356;6.816;2022-08-23T13:50:26;26.10;79.50
3921;DHT22;1975;49.356;6.816;2022-08-23T13:52:52;26.10;79.80
3921;DHT22;1975;49.356;6.816;2022-08-23T13:55:18;26.10;79.70
3921;DHT22;1975;49.356;6.816;2022-08-23T13:57:43;26.10;79.50
3921;DHT22;1975;49.356;6.816;2022-08-23T14:00:09;26.10;79.60
3921;DHT22;1975;49.356;6.816;2022-08-23T14:02:35;26.10;79.70
3921;DHT22;1975;49.356;6.816;2022-08-23T14:05:02;26.10;78.60
3921;DHT22;1975;49.356;6.816;2022-08-23T14:07:27;26.10;78.90
3921;DHT22;1975;49.356;6.816;2022-08-23T14:09:53;26.10;78.80
3921;DHT22;1975;49.356;6.816;2022-08-23T14:12:20;26.10;79.50
3921;DHT22;1975;49.356;6.816;2022-08-23T14:14:46;26.20;79.40
3921;DHT22;1975;49.356;6.816;2022-08-23T14:17:12;26.20;79.20
3921;DHT22;1975;49.356;6.816;2022-08-23T14:19:39;26.30;78.50
3921;DHT22;1975;49.356;6.816;2022-08-23T14:22:05;26.60;77.90
3921;DHT22;1975;49.356;6.816;2022-08-23T14:24:30;26.70;75.70
3921;DHT22;1975;49.356;6.816;2022-08-23T14:26:56;26.80;76.00
3921;DHT22;1975;49.356;6.816;2022-08-23T14:29:22;27.00;76.00
3921;DHT22;1975;49.356;6.816;2022-08-23T14:31:48;27.10;74.90
3921;DHT22;1975;49.356;6.816;2022-08-23T14:34:14;27.30;73.40
3921;DHT22;1975;49.356;6.816;2022-08-23T14:36:39;27.20;73.40
3921;DHT22;1975;49.356;6.816;2022-08-23T14:39:05;27.30;73.10
3921;DHT22;1975;49.356;6.816;2022-08-23T14:41:30;27.30;73.20
3921;DHT22;1975;49.356;6.816;2022-08-23T14:43:56;27.40;73.60
3921;DHT22;1975;49.356;6.816;2022-08-23T14:46:22;27.20;74.50
3921;DHT22;1975;49.356;6.816;2022-08-23T14:48:47;27.20;74.80
3921;DHT22;1975;49.356;6.816;2022-08-23T14:51:27;27.20;74.10
3921;DHT22;1975;49.356;6.816;2022-08-23T14:53:53;27.30;74.10
3921;DHT22;1975;49.356;6.816;2022-08-23T14:56:18;27.60;72.40
3921;DHT22;1975;49.356;6.816;2022-08-23T14:58:45;27.60;73.90
3921;DHT22;1975;49.356;6.816;2022-08-23T15:01:11;27.30;74.80
3921;DHT22;1975;49.356;6.816;2022-08-23T15:03:37;27.20;75.70
3921;DHT22;1975;49.356;6.816;2022-08-23T15:06:06;27.00;76.20
3921;DHT22;1975;49.356;6.816;2022-08-23T15:08:32;27.00;76.80
3921;DHT22;1975;49.356;6.816;2022-08-23T15:10:57;26.90;76.90
3921;DHT22;1975;49.356;6.816;2022-08-23T15:13:23;26.90;77.50
3921;DHT22;1975;49.356;6.816;2022-08-23T15:15:50;26.90;77.80
3921;DHT22;1975;49.356;6.816;2022-08-23T15:18:16;26.90;77.80
3921;DHT22;1975;49.356;6.816;2022-08-23T15:20:42;26.80;77.90
3921;DHT22;1975;49.356;6.816;2022-08-23T15:23:07;26.80;78.60
3921;DHT22;1975;49.356;6.816;2022-08-23T15:25:34;26.80;78.60
3921;DHT22;1975;49.356;6.816;2022-08-23T15:28:00;26.80;78.50
3921;DHT22;1975;49.356;6.816;2022-08-23T15:30:29;26.80;78.40
3921;DHT22;1975;49.356;6.816;2022-08-23T15:32:54;26.90;79.30
3921;DHT22;1975;49.356;6.816;2022-08-23T15:35:20;26.80;79.00
3921;DHT22;1975;49.356;6.816;2022-08-23T15:37:45;26.90;79.20
3921;DHT22;1975;49.356;6.816;2022-08-23T15:40:11;26.90;79.10
3921;DHT22;1975;49.356;6.816;2022-08-23T15:42:37;26.90;79.40
3921;DHT22;1975;49.356;6.816;2022-08-23T15:45:02;26.90;80.10
3921;DHT22;1975;49.356;6.816;2022-08-23T15:47:30;26.90;80.10
3921;DHT22;1975;49.356;6.816;2022-08-23T15:49:56;26.90;80.00
3921;DHT22;1975;49.356;6.816;2022-08-23T15:52:22;26.90;79.50
3921;DHT22;1975;49.356;6.816;2022-08-23T15:54:47;27.00;79.50
3921;DHT22;1975;49.356;6.816;2022-08-23T15:57:17;27.00;79.90
3921;DHT22;1975;49.356;6.816;2022-08-23T15:59:44;27.00;80.30
3921;DHT22;1975;49.356;6.816;2022-08-23T16:02:10;27.00;80.50
3921;DHT22;1975;49.356;6.816;2022-08-23T16:04:35;27.00;80.80
3921;DHT22;1975;49.356;6.816;2022-08-23T16:07:04;27.00;80.80
3921;DHT22;1975;49.356;6.816;2022-08-23T16:09:30;27.00;80.80
3921;DHT22;1975;49.356;6.816;2022-08-23T16:11:56;27.00;81.10
3921;DHT22;1975;49.356;6.816;2022-08-23T16:14:21;27.00;81.40
3921;DHT22;1975;49.356;6.816;2022-08-23T16:16:47;27.00;81.50
3921;DHT22;1975;49.356;6.816;2022-08-23T16:19:12;27.00;81.80
3921;DHT22;1975;49.356;6.816;2022-08-23T16:21:38;27.00;82.00
3921;DHT22;1975;49.356;6.816;2022-08-23T16:24:04;27.00;82.90
3921;DHT22;1975;49.356;6.816;2022-08-23T16:26:31;26.90;81.90
3921;DHT22;1975;49.356;6.816;2022-08-23T16:28:57;27.00;82.40
3921;DHT22;1975;49.356;6.816;2022-08-23T16:31:23;27.00;82.50
3921;DHT22;1975;49.356;6.816;2022-08-23T16:33:57;27.00;82.50
3921;DHT22;1975;49.356;6.816;2022-08-23T16:36:22;27.00;82.40
3921;DHT22;1975;49.356;6.816;2022-08-23T16:38:48;27.00;81.90
3921;DHT22;1975;49.356;6.816;2022-08-23T16:41:15;27.00;82.20
3921;DHT22;1975;49.356;6.816;2022-08-23T16:43:40;27.00;81.90
3921;DHT22;1975;49.356;6.816;2022-08-23T16:46:06;27.00;81.90
3921;DHT22;1975;49.356;6.816;2022-08-23T16:48:31;27.00;81.80
3921;DHT22;1975;49.356;6.816;2022-08-23T16:50:58;27.00;82.20
3921;DHT22;1975;49.356;6.816;2022-08-23T16:53:24;27.00;82.60
3921;DHT22;1975;49.356;6.816;2022-08-23T16:55:51;27.00;82.70
3921;DHT22;1975;49.356;6.816;2022-08-23T16:58:17;27.00;82.80
3921;DHT22;1975;49.356;6.816;2022-08-23T17:00:42;27.00;82.90
3921;DHT22;1975;49.356;6.816;2022-08-23T17:03:08;27.00;83.00
3921;DHT22;1975;49.356;6.816;2022-08-23T17:05:35;27.00;83.00
3921;DHT22;1975;49.356;6.816;2022-08-23T17:08:01;27.00;83.10
3921;DHT22;1975;49.356;6.816;2022-08-23T17:10:27;27.00;83.20
3921;DHT22;1975;49.356;6.816;2022-08-23T17:12:54;27.00;83.00
3921;DHT22;1975;49.356;6.816;2022-08-23T17:15:22;27.00;82.90
3921;DHT22;1975;49.356;6.816;2022-08-23T17:17:48;27.00;83.00
3921;DHT22;1975;49.356;6.816;2022-08-23T17:20:14;27.00;82.70
3921;DHT22;1975;49.356;6.816;2022-08-23T17:22:40;27.00;82.90
3921;DHT22;1975;49.356;6.816;2022-08-23T17:25:07;27.00;82.60
3921;DHT22;1975;49.356;6.816;2022-08-23T17:27:35;27.00;82.80
3921;DHT22;1975;49.356;6.816;2022-08-23T17:30:01;27.00;82.70